createdAt,value
2018-04-25T05:29:29.769Z,38.5
2018-04-25T05:30:19.794Z,38.6
2018-04-25T05:31:09.601Z,38.6
2018-04-25T05:32:00.612Z,38.6
2018-04-25T05:32:48.879Z,38.6
2018-04-25T05:33:39.465Z,38.6
2018-04-25T05:34:30.170Z,38.6
2018-04-25T05:35:20.196Z,38.6
2018-04-25T05:36:09.980Z,38.6
2018-04-25T05:36:59.543Z,38.6
2018-04-25T05:37:50.125Z,38.6
2018-04-25T05:38:40.455Z,38.6
2018-04-25T05:39:30.002Z,38.6
2018-04-25T05:40:20.377Z,38.6
2018-04-25T05:41:10.902Z,38.6
2018-04-25T05:42:00.737Z,38.6
2018-04-25T05:42:50.769Z,38.6
2018-04-25T05:43:40.832Z,31.9
2018-04-25T05:44:30.436Z,31.3
2018-04-25T05:45:20.377Z,35
2018-04-25T05:46:11.810Z,35.8
2018-04-25T05:47:01.342Z,35.9
2018-04-25T05:47:50.837Z,35.9
2018-04-25T05:48:40.947Z,35.8
2018-04-25T05:49:30.445Z,35.7
2018-04-25T05:50:21.574Z,35.6
2018-04-25T05:51:11.161Z,35.7
2018-04-25T05:52:01.743Z,35.8
2018-04-25T05:52:51.513Z,36.1
2018-04-25T05:53:41.590Z,36.3
2018-04-25T05:54:31.947Z,36.6
2018-04-25T05:55:21.975Z,36.8
2018-04-25T05:56:11.769Z,36.9
2018-04-25T05:57:02.092Z,37
2018-04-25T05:57:52.663Z,37.1
2018-04-25T05:58:41.288Z,37.3
2018-04-25T05:59:32.036Z,37.4
2018-04-25T06:00:22.062Z,36.4
2018-04-25T06:01:12.503Z,35.9
2018-04-25T06:02:02.203Z,39.9
2018-04-25T06:02:52.270Z,40.7
2018-04-25T06:03:42.438Z,39.8
2018-04-25T06:04:32.687Z,39.2
2018-04-25T06:05:22.777Z,39.4
2018-04-25T06:06:12.048Z,40.1
2018-04-25T06:07:02.441Z,40.8
2018-04-25T06:07:52.646Z,41.3
2018-04-25T06:08:42.136Z,41.5
2018-04-25T06:09:32.776Z,41.6
2018-04-25T06:10:22.658Z,41.8
2018-04-25T06:11:12.363Z,42
2018-04-25T06:12:02.706Z,42.3
2018-04-25T06:12:52.275Z,42.4
2018-04-25T06:13:43.132Z,42.7
2018-04-25T06:14:33.169Z,42.8
2018-04-25T06:15:23.519Z,43
2018-04-25T06:16:12.808Z,43.1
2018-04-25T06:17:03.373Z,43.3
2018-04-25T06:17:53.235Z,43.4
2018-04-25T06:18:42.700Z,43.4
2018-04-25T06:19:33.838Z,43.6
2018-04-25T06:20:24.259Z,43.8
2018-04-25T06:21:13.125Z,43.9
2018-04-25T06:22:03.480Z,44.1
2018-04-25T06:22:54.147Z,44.3
2018-04-25T06:23:43.317Z,44.4
2018-04-25T06:24:33.946Z,44.6
2018-04-25T06:25:24.272Z,44.7
2018-04-25T06:26:14.105Z,44.9
2018-04-25T06:27:04.399Z,45
2018-04-25T06:27:53.391Z,45.1
2018-04-25T06:28:43.982Z,45.3
2018-04-25T06:29:34.389Z,45.4
2018-04-25T06:30:23.870Z,45.6
2018-04-25T06:31:14.765Z,45.8
2018-04-25T06:32:04.000Z,45.9
2018-04-25T06:32:54.590Z,46.1
2018-04-25T06:33:44.953Z,46.3
2018-04-25T06:34:34.457Z,46.4
2018-04-25T06:35:25.159Z,46.6
2018-04-25T06:36:14.035Z,46.7
2018-04-25T06:37:04.373Z,46.9
2018-04-25T06:37:54.725Z,47
2018-04-25T06:38:45.087Z,47.2
2018-04-25T06:39:36.118Z,47.3
2018-04-25T06:40:25.215Z,47.5
2018-04-25T06:41:14.701Z,47.6
2018-04-25T06:42:05.322Z,47.8
2018-04-25T06:42:55.382Z,47.9
2018-04-25T06:43:44.912Z,48.1
2018-04-25T06:44:35.211Z,48.3
2018-04-25T06:45:25.019Z,48.4
2018-04-25T06:46:15.666Z,48.5
2018-04-25T06:47:05.503Z,48.6
2018-04-25T06:47:55.583Z,48.8
2018-04-25T06:48:45.281Z,48.9
2018-04-25T06:49:35.676Z,49
2018-04-25T06:50:25.521Z,49.1
2018-04-25T06:51:16.123Z,49.2
2018-04-25T06:52:05.540Z,49.4
2018-04-25T06:52:56.448Z,49.5
2018-04-25T06:53:46.227Z,49.6
2018-04-25T06:54:36.026Z,49.8
2018-04-25T06:55:25.560Z,49.9
2018-04-25T06:56:15.931Z,50.1
2018-04-25T06:57:06.287Z,50.2
2018-04-25T06:57:56.057Z,50.4
2018-04-25T06:58:46.657Z,50.5
2018-04-25T06:59:36.400Z,50.6
2018-04-25T07:00:26.187Z,50.8
2018-04-25T07:01:16.562Z,50.9
2018-04-25T07:02:06.883Z,51.1
2018-04-25T07:02:57.205Z,51.2
2018-04-25T07:03:47.013Z,51.3
2018-04-25T07:04:36.805Z,51.4
2018-04-25T07:05:26.886Z,51.4
2018-04-25T07:06:16.923Z,51.6
2018-04-25T07:07:06.685Z,51.8
2018-04-25T07:07:58.148Z,51.9
2018-04-25T07:08:47.412Z,52
2018-04-25T07:09:37.742Z,52.2
2018-04-25T07:10:27.603Z,52.3
2018-04-25T07:11:17.867Z,52.4
2018-04-25T07:12:07.660Z,52.6
2018-04-25T07:12:57.289Z,52.8
2018-04-25T07:13:47.238Z,52.9
2018-04-25T07:14:37.581Z,53.1
2018-04-25T07:15:27.928Z,53.2
2018-04-25T07:16:18.225Z,53.4
2018-04-25T07:17:07.816Z,53.5
2018-04-25T07:17:58.398Z,53.7
2018-04-25T07:18:47.637Z,53.8
2018-04-25T07:19:37.511Z,53.9
2018-04-25T07:20:28.590Z,54.1
2018-04-25T07:21:18.104Z,54.3
2018-04-25T07:22:07.984Z,54.4
2018-04-25T07:22:58.286Z,54.6
2018-04-25T07:23:48.573Z,54.7
2018-04-25T07:24:38.729Z,54.9
2018-04-25T07:25:28.488Z,55
2018-04-25T07:26:18.657Z,55.1
2018-04-25T07:27:09.129Z,55.3
2018-04-25T07:27:58.147Z,55.5
2018-04-25T07:28:48.435Z,55.6
2018-04-25T07:29:39.768Z,55.8
2018-04-25T07:30:28.831Z,55.9
2018-04-25T07:31:19.428Z,56.1
2018-04-25T07:32:09.507Z,56.3
2018-04-25T07:32:59.289Z,56.4
2018-04-25T07:33:48.899Z,56.6
2018-04-25T07:34:38.849Z,56.7
2018-04-25T07:35:30.561Z,56.8
2018-04-25T07:36:19.553Z,57
2018-04-25T07:37:09.835Z,57.1
2018-04-25T07:37:59.662Z,57.3
2018-04-25T07:38:49.195Z,57.4
2018-04-25T07:39:40.098Z,57.6
2018-04-25T07:41:20.221Z,57.9
2018-04-25T07:42:09.761Z,58.1
2018-04-25T07:43:00.409Z,58.3
2018-04-25T07:43:50.432Z,58.4
2018-04-25T07:44:40.207Z,58.5
2018-04-25T07:45:29.731Z,58.7
2018-04-25T07:46:20.069Z,58.8
2018-04-25T07:47:10.672Z,58.9
2018-04-25T07:48:00.157Z,59.1
2018-04-25T07:48:50.530Z,59.3
2018-04-25T07:49:40.627Z,59.4
2018-04-25T07:50:30.752Z,59.5
2018-04-25T07:51:20.445Z,59.7
2018-04-25T07:52:11.178Z,59.8
2018-04-25T07:53:00.406Z,60
2018-04-25T07:53:50.737Z,60.1
2018-04-25T07:54:40.695Z,60.3
2018-04-25T07:55:31.344Z,60.4
2018-04-25T07:56:20.544Z,60.6
2018-04-25T07:57:11.178Z,60.7
2018-04-25T07:58:00.238Z,60.8
2018-04-25T07:58:51.070Z,61
2018-04-25T07:59:41.381Z,61.1
2018-04-25T08:00:31.463Z,61.3
2018-04-25T08:01:21.229Z,61.4
2018-04-25T08:02:11.600Z,61.6
2018-04-25T08:03:01.455Z,61.8
2018-04-25T08:03:51.751Z,61.9
2018-04-25T08:04:41.487Z,62
2018-04-25T08:05:31.564Z,62.2
2018-04-25T08:06:22.182Z,62.3
2018-04-25T08:07:11.505Z,62.4
2018-04-25T08:08:02.014Z,62.6
2018-04-25T08:08:51.822Z,62.8
2018-04-25T08:09:41.981Z,62.9
2018-04-25T08:10:31.679Z,63
2018-04-25T08:11:21.730Z,63.1
2018-04-25T08:12:12.164Z,63.3
2018-04-25T08:13:01.874Z,63.4
2018-04-25T08:13:52.780Z,63.5
2018-04-25T08:14:42.542Z,63.6
2018-04-25T08:15:32.619Z,63.8
2018-04-25T08:16:22.975Z,63.9
2018-04-25T08:17:12.173Z,64
2018-04-25T08:18:03.954Z,64.2
2018-04-25T08:18:52.637Z,64.3
2018-04-25T08:19:42.665Z,64.4
2018-04-25T08:20:32.474Z,64.6
2018-04-25T08:21:22.844Z,64.6
2018-04-25T08:22:12.905Z,64.8
2018-04-25T08:23:02.373Z,64.8
2018-04-25T08:23:54.140Z,64.9
2018-04-25T08:24:42.839Z,65.1
2018-04-25T08:25:33.442Z,65.3
2018-04-25T08:26:23.486Z,65.4
2018-04-25T08:27:12.437Z,65.5
2018-04-25T08:28:03.648Z,65.6
2018-04-25T08:28:53.123Z,65.8
2018-04-25T08:29:43.785Z,65.9
2018-04-25T08:30:34.085Z,66.1
2018-04-25T08:31:24.157Z,66.2
2018-04-25T08:32:14.253Z,66.3
2018-04-25T08:33:04.040Z,66.4
2018-04-25T08:33:54.425Z,66.6
2018-04-25T08:34:44.138Z,66.8
2018-04-25T08:35:34.570Z,66.9
2018-04-25T08:36:23.691Z,67
2018-04-25T08:37:14.375Z,67.1
2018-04-25T08:38:04.140Z,67.1
2018-04-25T08:38:54.187Z,67.1
2018-04-25T08:39:44.277Z,67.1
2018-04-25T08:40:34.265Z,67.2
2018-04-25T08:41:24.115Z,67.4
2018-04-25T08:42:14.160Z,67.5
2018-04-25T08:43:04.806Z,67.7
2018-04-25T08:43:54.889Z,67.9
2018-04-25T08:44:45.804Z,68.1
2018-04-25T08:45:34.770Z,68.3
2018-04-25T08:46:25.109Z,68.4
2018-04-25T08:47:14.615Z,68.6
2018-04-25T08:48:04.932Z,68.7
2018-04-25T08:48:55.556Z,68.8
2018-04-25T08:49:45.072Z,69
2018-04-25T08:50:35.407Z,69.1
2018-04-25T08:51:24.690Z,69.3
2018-04-25T08:52:15.783Z,69.4
2018-04-25T08:53:05.690Z,69.6
2018-04-25T08:53:55.899Z,69.7
2018-04-25T08:54:45.740Z,69.8
2018-04-25T08:55:36.053Z,69.9
2018-04-25T08:56:26.228Z,70.1
2018-04-25T08:57:15.917Z,70.1
2018-04-25T08:58:06.263Z,70.3
2018-04-25T08:58:56.383Z,70.4
2018-04-25T08:59:46.086Z,70.5
2018-04-25T09:00:35.648Z,70.6
2018-04-25T09:01:25.981Z,70.7
2018-04-25T09:02:15.773Z,70.9
2018-04-25T09:03:06.719Z,70.9
2018-04-25T09:03:56.273Z,71.1
2018-04-25T09:04:46.051Z,71.1
2018-04-25T09:05:36.320Z,71.3
2018-04-25T09:06:26.937Z,71.3
2018-04-25T09:07:16.990Z,71.4
2018-04-25T09:08:06.550Z,71.4
2018-04-25T09:08:56.605Z,71.5
2018-04-25T09:09:46.635Z,71.6
2018-04-25T09:10:37.070Z,71.7
2018-04-25T09:11:27.327Z,71.8
2018-04-25T09:12:17.195Z,71.9
2018-04-25T09:13:07.458Z,71.9
2018-04-25T09:13:56.717Z,72
2018-04-25T09:14:47.045Z,72.1
2018-04-25T09:15:38.480Z,72.1
2018-04-25T09:16:26.619Z,72.2
2018-04-25T09:17:17.810Z,72.3
2018-04-25T09:18:07.340Z,72.3
2018-04-25T09:18:56.244Z,72.4
2018-04-25T09:19:46.955Z,72.5
2018-04-25T09:20:37.312Z,72.6
2018-04-25T09:21:28.204Z,72.7
2018-04-25T09:22:18.197Z,72.8
2018-04-25T09:23:08.061Z,72.9
2018-04-25T09:23:57.517Z,72.9
2018-04-25T09:24:48.140Z,73
2018-04-25T09:25:38.567Z,72.8
2018-04-25T09:26:28.327Z,72.3
2018-04-25T09:27:18.052Z,71.6
2018-04-25T09:28:08.388Z,71.1
2018-04-25T09:28:58.164Z,70.9
2018-04-25T09:29:48.563Z,70.3
2018-04-25T09:30:38.284Z,69.3
2018-04-25T09:31:28.758Z,68.5
2018-04-25T09:32:18.993Z,68.1
2018-04-25T09:33:07.936Z,68
2018-04-25T09:33:58.842Z,68.1
2018-04-25T09:34:49.243Z,68.3
2018-04-25T09:35:37.863Z,68.4
2018-04-25T09:36:28.473Z,68.5
2018-04-25T09:37:18.838Z,68.7
2018-04-25T09:38:08.882Z,68.9
2018-04-25T09:38:59.265Z,69.2
2018-04-25T09:39:49.289Z,69.4
2018-04-25T09:40:39.614Z,69.7
2018-04-25T09:41:29.133Z,69.9
2018-04-25T09:42:19.486Z,70.2
2018-04-25T09:43:09.570Z,70.4
2018-04-25T09:43:59.637Z,70.8
2018-04-25T09:44:49.453Z,70.9
2018-04-25T09:45:39.041Z,71.2
2018-04-25T09:46:29.575Z,71.4
2018-04-25T09:47:19.333Z,71.6
2018-04-25T09:48:09.968Z,71.8
2018-04-25T09:49:00.380Z,71.9
2018-04-25T09:49:49.570Z,72.1
2018-04-25T09:50:39.920Z,72.3
2018-04-25T09:51:29.664Z,72.4
2018-04-25T09:52:19.770Z,72.4
2018-04-25T09:53:10.175Z,72.3
2018-04-25T09:54:00.166Z,72.3
2018-04-25T09:54:50.205Z,72.4
2018-04-25T09:55:40.293Z,72.5
2018-04-25T09:56:30.078Z,72.7
2018-04-25T09:57:20.968Z,72.8
2018-04-25T09:58:10.633Z,72.9
2018-04-25T09:59:01.186Z,73.1
2018-04-25T09:59:51.195Z,73.2
2018-04-25T10:00:41.250Z,73.3
2018-04-25T10:01:31.083Z,73.5
2018-04-25T10:02:20.588Z,73.6
2018-04-25T10:03:11.468Z,73.8
2018-04-25T10:04:01.051Z,73.8
2018-04-25T10:04:51.323Z,73.7
2018-04-25T10:05:41.350Z,73.6
2018-04-25T10:06:31.728Z,73.4
2018-04-25T10:07:20.645Z,73.4
2018-04-25T10:08:11.565Z,73.5
2018-04-25T10:09:01.629Z,73.6
2018-04-25T10:09:51.966Z,73.8
2018-04-25T10:10:41.550Z,73.8
2018-04-25T10:11:31.544Z,73.9
2018-04-25T10:12:22.156Z,74
2018-04-25T10:13:12.288Z,74.2
2018-04-25T10:14:02.006Z,74.3
2018-04-25T10:14:51.805Z,74.4
2018-04-25T10:15:42.160Z,74.5
2018-04-25T10:16:31.928Z,74.6
2018-04-25T10:17:21.869Z,74.8
2018-04-25T10:18:12.610Z,74.8
2018-04-25T10:19:01.837Z,74.9
2018-04-25T10:19:52.745Z,75.1
2018-04-25T10:20:42.865Z,75.1
2018-04-25T10:21:32.948Z,75.3
2018-04-25T10:22:22.661Z,75.4
2018-04-25T10:23:12.866Z,75.4
2018-04-25T10:24:03.488Z,75.5
2018-04-25T10:24:52.084Z,75.6
2018-04-25T10:25:43.776Z,75.7
2018-04-25T10:26:32.972Z,75.8
2018-04-25T10:27:23.082Z,75.9
2018-04-25T10:28:12.841Z,75.9
2018-04-25T10:29:03.469Z,76.1
2018-04-25T10:29:53.275Z,76.1
2018-04-25T10:30:43.599Z,76.1
2018-04-25T10:31:33.409Z,76.3
2018-04-25T10:32:23.210Z,76.3
2018-04-25T10:33:13.517Z,76.3
2018-04-25T10:34:03.636Z,76.4
2018-04-25T10:34:54.000Z,76.4
2018-04-25T10:35:43.531Z,76.6
2018-04-25T10:36:33.535Z,76.6
2018-04-25T10:37:23.612Z,76.7
2018-04-25T10:38:12.822Z,76.8
2018-04-25T10:39:04.676Z,76.8
2018-04-25T10:39:54.067Z,76.6
2018-04-25T10:40:43.606Z,76.5
2018-04-25T10:41:33.674Z,76.3
2018-04-25T10:42:24.281Z,76.1
2018-04-25T10:43:13.768Z,75.5
2018-04-25T10:44:04.409Z,74.6
2018-04-25T10:44:54.747Z,73.7
2018-04-25T10:45:44.554Z,73.2
2018-04-25T10:46:34.013Z,72.9
2018-04-25T10:47:24.684Z,72.6
2018-04-25T10:48:14.219Z,72.3
2018-04-25T10:49:04.807Z,72.2
2018-04-25T10:49:54.263Z,72.2
2018-04-25T10:50:44.960Z,72.4
2018-04-25T10:51:35.043Z,72.5
2018-04-25T10:52:25.105Z,72.6
2018-04-25T10:53:14.560Z,72.8
2018-04-25T10:54:04.983Z,72.9
2018-04-25T10:54:55.245Z,73.1
2018-04-25T10:55:45.364Z,73.3
2018-04-25T10:56:34.546Z,73.6
2018-04-25T10:57:25.477Z,73.8
2018-04-25T10:58:15.803Z,73.9
2018-04-25T10:59:05.681Z,74.1
2018-04-25T10:59:55.379Z,74.3
2018-04-25T11:00:46.259Z,74.5
2018-04-25T11:01:36.069Z,74.8
2018-04-25T11:02:26.625Z,74.9
2018-04-25T11:03:15.694Z,75.1
2018-04-25T11:04:06.307Z,75.2
2018-04-25T11:04:55.485Z,75.4
2018-04-25T11:05:45.897Z,75.5
2018-04-25T11:06:36.212Z,75.6
2018-04-25T11:07:26.623Z,75.7
2018-04-25T11:08:16.974Z,75.8
2018-04-25T11:09:05.803Z,75.9
2018-04-25T11:09:56.230Z,76.1
2018-04-25T11:10:46.515Z,76.1
2018-04-25T11:11:36.370Z,76.3
2018-04-25T11:12:26.931Z,76.3
2018-04-25T11:13:16.109Z,76.4
2018-04-25T11:14:06.784Z,76.5
2018-04-25T11:14:57.126Z,76.6
2018-04-25T11:15:46.356Z,76.6
2018-04-25T11:16:36.742Z,76.7
2018-04-25T11:17:26.760Z,76.8
2018-04-25T11:18:17.113Z,76.8
2018-04-25T11:19:07.163Z,76.9
2018-04-25T11:19:57.257Z,76.9
2018-04-25T11:20:47.022Z,77
2018-04-25T11:21:37.690Z,77.1
2018-04-25T11:22:26.953Z,77.1
2018-04-25T11:23:17.793Z,76.9
2018-04-25T11:24:07.847Z,76.1
2018-04-25T11:24:57.633Z,75.5
2018-04-25T11:25:47.682Z,77.1
2018-04-25T11:26:38.604Z,79.1
2018-04-25T11:27:27.513Z,79.4
2018-04-25T11:28:17.627Z,78.6
2018-04-25T11:29:08.296Z,77.6
2018-04-25T11:29:58.142Z,78.1
2018-04-25T11:30:48.418Z,79.8
2018-04-25T11:31:37.886Z,79.8
2018-04-25T11:32:28.240Z,78.9
2018-04-25T11:33:17.754Z,77.8
2018-04-25T11:34:08.071Z,78.1
2018-04-25T11:35:47.928Z,80.3
2018-04-25T11:36:38.004Z,79.4
2018-04-25T11:37:28.623Z,78.3
2018-04-25T11:38:18.753Z,77.7
2018-04-25T11:39:09.130Z,77.6
2018-04-25T11:39:58.798Z,77.9
2018-04-25T11:40:49.155Z,78
2018-04-25T11:41:38.904Z,78
2018-04-25T11:42:28.722Z,77.9
2018-04-25T11:43:19.436Z,77.8
2018-04-25T11:44:08.902Z,77.8
2018-04-25T11:44:59.530Z,77.8
2018-04-25T11:45:49.271Z,77.8
2018-04-25T11:46:39.335Z,77.9
2018-04-25T11:47:29.424Z,77.9
2018-04-25T11:48:19.841Z,77.9
2018-04-25T11:49:09.590Z,77.9
2018-04-25T11:49:59.634Z,77.9
2018-04-25T11:50:49.427Z,78
2018-04-25T11:51:39.265Z,78
2018-04-25T11:52:29.305Z,78
2018-04-25T11:53:18.200Z,78.1
2018-04-25T11:54:09.987Z,78.1
2018-04-25T11:54:59.210Z,78.1
2018-04-25T11:55:49.547Z,78.1
2018-04-25T11:56:39.627Z,78.1
2018-04-25T11:57:29.999Z,78.2
2018-04-25T11:58:19.845Z,78.3
2018-04-25T11:59:10.092Z,78.3
2018-04-25T11:59:59.858Z,78.4
2018-04-25T12:00:50.812Z,78.4
2018-04-25T12:01:40.858Z,78.4
2018-04-25T12:02:30.887Z,78.4
2018-04-25T12:03:20.683Z,78.4
2018-04-25T12:04:09.927Z,78.4
2018-04-25T12:05:01.095Z,78.4
2018-04-25T12:05:50.629Z,78.4
2018-04-25T12:06:41.279Z,78.4
2018-04-25T12:07:31.347Z,78.4
2018-04-25T12:08:21.108Z,78.4
2018-04-25T12:09:11.138Z,78.3
2018-04-25T12:10:00.924Z,78.3
2018-04-25T12:10:51.562Z,78
2018-04-25T12:11:41.355Z,77.8
2018-04-25T12:12:30.934Z,77.8
2018-04-25T12:13:21.400Z,77.9
2018-04-25T12:14:11.322Z,78
2018-04-25T12:15:00.670Z,78
2018-04-25T12:15:51.421Z,77.9
2018-04-25T12:16:40.624Z,77.9
2018-04-25T12:17:31.280Z,77.9
2018-04-25T12:18:21.612Z,77.9
2018-04-25T12:19:11.106Z,77.9
2018-04-25T12:20:01.757Z,77.9
2018-04-25T12:20:50.842Z,77.9
2018-04-25T12:21:41.303Z,77.9
2018-04-25T12:22:32.172Z,77.9
2018-04-25T12:23:21.719Z,77.9
2018-04-25T12:24:11.817Z,77.9
2018-04-25T12:25:01.425Z,77.9
2018-04-25T12:25:51.629Z,77.9
2018-04-25T12:26:42.366Z,77.9
2018-04-25T12:27:31.919Z,77.9
2018-04-25T12:28:22.231Z,77.8
2018-04-25T12:29:11.706Z,77.8
2018-04-25T12:30:01.937Z,77.8
2018-04-25T12:30:52.609Z,77.8
2018-04-25T12:31:42.398Z,77.8
2018-04-25T12:32:31.965Z,77.8
2018-04-25T12:33:22.331Z,77.8
2018-04-25T12:34:12.600Z,77.8
2018-04-25T12:35:02.759Z,77.8
2018-04-25T12:35:53.569Z,77.8
2018-04-25T12:36:42.327Z,77.8
2018-04-25T12:37:32.968Z,77.9
2018-04-25T12:38:22.997Z,77.9
2018-04-25T12:39:12.315Z,77.8
2018-04-25T12:40:02.788Z,77.8
2018-04-25T12:40:52.710Z,77.7
2018-04-25T12:41:44.024Z,77.6
2018-04-25T12:42:33.251Z,77.6
2018-04-25T12:43:24.177Z,77.6
2018-04-25T12:44:14.253Z,77.6
2018-04-25T12:45:04.023Z,77.6
2018-04-25T12:45:53.510Z,77.6
2018-04-25T12:46:44.135Z,77.6
2018-04-25T12:47:34.488Z,77.6
2018-04-25T12:48:24.259Z,77.6
2018-04-25T12:49:14.635Z,77.6
2018-04-25T12:50:04.407Z,77.5
2018-04-25T12:50:54.735Z,77.4
2018-04-25T12:51:44.033Z,77
2018-04-25T12:52:34.038Z,76.6
2018-04-25T12:53:24.931Z,75.9
2018-04-25T12:54:14.760Z,74.8
2018-04-25T12:55:04.839Z,73.8
2018-04-25T12:55:55.135Z,72.8
2018-04-25T12:56:44.639Z,72.3
2018-04-25T12:57:34.789Z,73.3
2018-04-25T12:58:24.788Z,73.9
2018-04-25T12:59:14.938Z,73.4
2018-04-25T13:00:03.848Z,72.7
2018-04-25T13:00:55.636Z,72.3
2018-04-25T13:01:45.809Z,72
2018-04-25T13:02:35.395Z,71.8
2018-04-25T13:03:24.900Z,71.4
2018-04-25T13:04:14.489Z,70.8
2018-04-25T13:05:05.631Z,70.7
2018-04-25T13:05:56.000Z,69.3
2018-04-25T13:06:46.067Z,68.1
2018-04-25T13:07:35.856Z,67.1
2018-04-25T13:08:25.409Z,66.3
2018-04-25T13:09:16.168Z,65.5
2018-04-25T13:10:05.696Z,64.8
2018-04-25T13:10:56.058Z,64.3
2018-04-25T13:11:45.899Z,63.8
2018-04-25T13:12:36.448Z,63.5
2018-04-25T13:13:25.957Z,63.3
2018-04-25T13:14:16.591Z,63
2018-04-25T13:15:06.355Z,62.8
2018-04-25T13:15:56.568Z,62.6
2018-04-25T13:16:46.260Z,62.4
2018-04-25T13:17:35.770Z,62.3
2018-04-25T13:18:26.910Z,62.4
2018-04-25T13:20:06.507Z,63.2
2018-04-25T13:20:56.272Z,63.1
2018-04-25T13:21:45.875Z,62.7
2018-04-25T13:22:36.955Z,62.1
2018-04-25T13:23:27.093Z,61.7
2018-04-25T13:24:17.094Z,61.4
2018-04-25T13:25:07.176Z,61.3
2018-04-25T13:25:56.947Z,61.2
2018-04-25T13:26:47.359Z,61.1
2018-04-25T13:27:37.737Z,61
2018-04-25T13:28:27.439Z,60.9
2018-04-25T13:29:17.537Z,60.9
2018-04-25T13:30:07.617Z,60.8
2018-04-25T13:30:57.654Z,60.7
2018-04-25T13:31:48.026Z,60.6
2018-04-25T13:32:37.757Z,64.1
2018-04-25T13:33:27.597Z,66.9
2018-04-25T13:34:17.329Z,67.4
2018-04-25T13:35:08.497Z,67.1
2018-04-25T13:35:57.769Z,66.6
2018-04-25T13:36:47.616Z,66.1
2018-04-25T13:37:37.588Z,65.4
2018-04-25T13:38:28.010Z,64.8
2018-04-25T13:39:17.773Z,64.2
2018-04-25T13:40:08.340Z,63.9
2018-04-25T13:40:58.722Z,65.2
2018-04-25T13:41:48.513Z,67.4
2018-04-25T13:42:38.091Z,68.1
2018-04-25T13:43:28.670Z,68.3
2018-04-25T13:44:18.965Z,68.7
2018-04-25T13:45:08.768Z,69.1
2018-04-25T13:45:58.785Z,69.4
2018-04-25T13:46:49.828Z,69.6
2018-04-25T13:47:38.735Z,69.6
2018-04-25T13:48:28.754Z,69.6
2018-04-25T13:49:19.329Z,69.6
2018-04-25T13:50:09.130Z,69.6
2018-04-25T13:50:58.119Z,69.6
2018-04-25T13:51:49.550Z,69.6
2018-04-25T13:52:40.614Z,69.6
2018-04-25T13:53:29.379Z,69.6
2018-04-25T13:54:19.270Z,69.5
2018-04-25T13:55:09.492Z,69.4
2018-04-25T13:55:59.559Z,69.4
2018-04-25T13:56:49.965Z,69.3
2018-04-25T13:57:39.148Z,69.3
2018-04-25T13:58:30.069Z,69.2
2018-04-25T13:59:20.147Z,69.1
2018-04-25T14:00:10.282Z,68.9
2018-04-25T14:00:59.913Z,68.8
2018-04-25T14:01:49.780Z,68.6
2018-04-25T14:02:39.836Z,68.6
2018-04-25T14:03:29.652Z,68.4
2018-04-25T14:04:20.050Z,68.4
2018-04-25T14:05:10.612Z,68.3
2018-04-25T14:06:00.450Z,68.2
2018-04-25T14:06:50.716Z,68.1
2018-04-25T14:07:40.527Z,67.9
2018-04-25T14:08:30.282Z,67.8
2018-04-25T14:09:20.931Z,67.6
2018-04-25T14:10:10.745Z,67.4
2018-04-25T14:11:01.052Z,67.1
2018-04-25T14:11:50.862Z,66.7
2018-04-25T14:12:40.901Z,66.4
2018-04-25T14:13:31.250Z,66.1
2018-04-25T14:14:21.051Z,65.8
2018-04-25T14:15:11.114Z,65.3
2018-04-25T14:16:00.684Z,64.6
2018-04-25T14:16:50.663Z,63.9
2018-04-25T14:17:40.478Z,63.3
2018-04-25T14:18:31.391Z,62.7
2018-04-25T14:19:21.146Z,62.1
2018-04-25T14:20:11.778Z,61.6
2018-04-25T14:21:01.463Z,61.1
2018-04-25T14:21:51.654Z,60.6
2018-04-25T14:22:41.417Z,60.3
2018-04-25T14:23:32.047Z,59.9
2018-04-25T14:24:22.106Z,59.8
2018-04-25T14:25:11.892Z,59.5
2018-04-25T14:26:02.247Z,59.3
2018-04-25T14:26:51.815Z,59.1
2018-04-25T14:27:42.083Z,58.9
2018-04-25T14:28:31.410Z,58.8
2018-04-25T14:29:21.895Z,58.6
2018-04-25T14:30:13.017Z,58.4
2018-04-25T14:31:02.576Z,58.3
2018-04-25T14:31:52.418Z,58.2
2018-04-25T14:32:42.483Z,58
2018-04-25T14:33:32.512Z,57.9
2018-04-25T14:35:12.652Z,57.6
2018-04-25T14:36:03.011Z,57.5
2018-04-25T14:36:52.493Z,57.4
2018-04-25T14:37:42.565Z,57.3
2018-04-25T14:38:32.942Z,57.3
2018-04-25T14:39:23.282Z,57.1
2018-04-25T14:40:13.077Z,57.1
2018-04-25T14:41:03.019Z,56.9
2018-04-25T14:41:52.350Z,56.9
2018-04-25T14:42:42.515Z,56.8
2018-04-25T14:43:32.571Z,56.7
2018-04-25T14:44:23.397Z,56.6
2018-04-25T14:45:12.909Z,56.6
2018-04-25T14:46:03.287Z,56.5
2018-04-25T14:46:53.578Z,56.4
2018-04-25T14:47:42.615Z,56.3
2018-04-25T14:48:34.907Z,56.3
2018-04-25T14:49:23.518Z,56.2
2018-04-25T14:50:12.716Z,56.1
2018-04-25T14:51:03.446Z,56.1
2018-04-25T14:51:54.088Z,56.1
2018-04-25T14:52:44.047Z,56
2018-04-25T14:53:34.397Z,55.9
2018-04-25T14:54:24.411Z,55.9
2018-04-25T14:55:13.967Z,55.8
2018-04-25T14:56:04.084Z,55.8
2018-04-25T14:56:54.673Z,55.8
2018-04-25T14:57:44.422Z,55.8
2018-04-25T14:58:34.279Z,55.6
2018-04-25T14:59:24.859Z,55.6
2018-04-25T15:00:14.627Z,55.6
2018-04-25T15:01:04.012Z,55.6
2018-04-25T15:01:55.036Z,55.5
2018-04-25T15:02:43.592Z,55.5
2018-04-25T15:03:32.985Z,55.4
2018-04-25T15:04:23.337Z,55.4
2018-04-25T15:05:13.401Z,55.4
2018-04-25T15:06:04.546Z,55.3
2018-04-25T15:06:55.429Z,55.3
2018-04-25T15:07:45.514Z,55.3
2018-04-25T15:08:35.283Z,55.3
2018-04-25T15:09:25.327Z,55.2
2018-04-25T15:10:15.398Z,55.2
2018-04-25T15:11:05.769Z,55.1
2018-04-25T15:11:55.280Z,55.1
2018-04-25T15:12:44.787Z,55.1
2018-04-25T15:13:35.647Z,55.1
2018-04-25T15:14:26.031Z,55.1
2018-04-25T15:15:15.589Z,55
2018-04-25T15:16:05.917Z,55
2018-04-25T15:16:55.629Z,54.9
2018-04-25T15:17:45.732Z,54.9
2018-04-25T15:18:35.586Z,54.9
2018-04-25T15:19:26.126Z,54.9
2018-04-25T15:20:16.201Z,54.9
2018-04-25T15:21:05.943Z,54.8
2018-04-25T15:21:56.574Z,54.8
2018-04-25T15:22:46.047Z,54.8
2018-04-25T15:23:36.691Z,54.8
2018-04-25T15:24:26.236Z,54.7
2018-04-25T15:25:16.851Z,54.7
2018-04-25T15:26:06.381Z,54.6
2018-04-25T15:26:56.136Z,54.6
2018-04-25T15:27:46.006Z,54.6
2018-04-25T15:28:36.791Z,54.5
2018-04-25T15:29:27.196Z,54.5
2018-04-25T15:30:16.669Z,54.5
2018-04-25T15:31:07.095Z,54.4
2018-04-25T15:31:57.105Z,54.4
2018-04-25T15:32:46.071Z,54.4
2018-04-25T15:33:36.673Z,54.3
2018-04-25T15:34:26.733Z,54.3
2018-04-25T15:35:17.354Z,54.3
2018-04-25T15:36:07.719Z,54.3
2018-04-25T15:36:56.985Z,54.2
2018-04-25T15:37:47.768Z,54.2
2018-04-25T15:38:37.329Z,54.1
2018-04-25T15:39:26.863Z,54.1
2018-04-25T15:40:17.175Z,54.1
2018-04-25T15:41:08.179Z,54.1
2018-04-25T15:41:57.037Z,54
2018-04-25T15:42:48.114Z,53.9
2018-04-25T15:43:38.060Z,53.9
2018-04-25T15:44:28.080Z,53.9
2018-04-25T15:45:17.847Z,53.9
2018-04-25T15:46:08.531Z,53.9
2018-04-25T15:46:58.247Z,53.8
2018-04-25T15:47:48.419Z,53.8
2018-04-25T15:48:38.720Z,53.8
2018-04-25T15:49:28.727Z,53.8
2018-04-25T15:50:18.526Z,53.7
2018-04-25T15:51:08.913Z,53.7
2018-04-25T15:51:58.946Z,53.6
2018-04-25T15:52:48.994Z,53.6
2018-04-25T15:53:38.750Z,53.6
2018-04-25T15:54:28.853Z,53.6
2018-04-25T15:55:19.181Z,53.6
2018-04-25T15:56:08.945Z,53.5
2018-04-25T15:56:58.462Z,53.5
2018-04-25T15:57:49.056Z,53.4
2018-04-25T15:58:39.419Z,53.4
2018-04-25T15:59:28.949Z,53.4
2018-04-25T16:00:19.282Z,53.4
2018-04-25T16:01:09.630Z,53.3
2018-04-25T16:01:59.425Z,53.3
2018-04-25T16:02:49.764Z,53.3
2018-04-25T16:03:39.736Z,53.3
2018-04-25T16:04:29.404Z,53.3
2018-04-25T16:05:19.657Z,53.2
2018-04-25T16:06:10.068Z,53.2
2018-04-25T16:06:59.277Z,53.1
2018-04-25T16:07:50.165Z,53.1
2018-04-25T16:08:39.359Z,53.1
2018-04-25T16:09:29.702Z,53.1
2018-04-25T16:10:20.327Z,53.1
2018-04-25T16:11:10.465Z,53
2018-04-25T16:11:59.611Z,53
2018-04-25T16:12:49.730Z,53
2018-04-25T16:13:40.341Z,53
2018-04-25T16:14:30.394Z,52.9
2018-04-25T16:15:20.266Z,52.9
2018-04-25T16:16:10.308Z,52.9
2018-04-25T16:17:01.339Z,52.9
2018-04-25T16:17:50.937Z,52.9
2018-04-25T16:18:40.476Z,52.8
2018-04-25T16:19:30.528Z,52.8
2018-04-25T16:20:21.170Z,52.8
2018-04-25T16:21:11.644Z,52.8
2018-04-25T16:22:00.171Z,52.8
2018-04-25T16:22:52.014Z,52.8
2018-04-25T16:23:40.834Z,52.7
2018-04-25T16:24:30.914Z,52.7
2018-04-25T16:25:21.590Z,52.6
2018-04-25T16:26:10.543Z,52.6
2018-04-25T16:27:01.088Z,52.6
2018-04-25T16:27:51.753Z,52.6
2018-04-25T16:28:41.570Z,52.6
2018-04-25T16:29:31.844Z,52.6
2018-04-25T16:30:21.399Z,52.5
2018-04-25T16:31:11.993Z,52.5
2018-04-25T16:32:01.766Z,52.5
2018-04-25T16:32:51.264Z,52.4
2018-04-25T16:33:42.154Z,52.4
2018-04-25T16:37:52.189Z,52.3
2018-04-25T16:38:43.075Z,52.3
2018-04-25T16:39:32.306Z,52.3
2018-04-25T16:40:22.378Z,52.3
2018-04-25T16:41:12.713Z,52.3
2018-04-25T16:42:02.545Z,52.3
2018-04-25T16:42:51.786Z,52.3
2018-04-25T16:43:42.133Z,52.3
2018-04-25T16:44:33.331Z,52.2